sensor_id;sensor_type;location;lat;lon;timestamp;P1;durP1;ratioP1;P2;durP2;ratioP2
23088;SDS011;11713;48.506;8.966;2022-12-18T00:01:26;51.00;;;20.27;;
23088;SDS011;11713;48.506;8.966;2022-12-18T00:03:54;48.00;;;20.93;;
23088;SDS011;11713;48.506;8.966;2022-12-18T00:06:21;52.37;;;21.73;;
23088;SDS011;11713;48.506;8.966;2022-12-18T00:08:48;44.90;;;20.17;;
23088;SDS011;11713;48.506;8.966;2022-12-18T00:11:14;44.17;;;18.90;;
23088;SDS011;11713;48.506;8.966;2022-12-18T00:13:43;45.20;;;19.87;;
23088;SDS011;11713;48.506;8.966;2022-12-18T00:16:10;45.83;;;20.17;;
23088;SDS011;11713;48.506;8.966;2022-12-18T00:18:41;46.53;;;19.90;;
23088;SDS011;11713;48.506;8.966;2022-12-18T00:21:08;43.60;;;18.93;;
23088;SDS011;11713;48.506;8.966;2022-12-18T00:23:36;51.77;;;20.33;;
23088;SDS011;11713;48.506;8.966;2022-12-18T00:26:08;49.67;;;21.17;;
23088;SDS011;11713;48.506;8.966;2022-12-18T00:28:40;51.03;;;20.70;;
23088;SDS011;11713;48.506;8.966;2022-12-18T00:31:08;53.57;;;20.37;;
23088;SDS011;11713;48.506;8.966;2022-12-18T00:33:36;48.87;;;20.53;;
23088;SDS011;11713;48.506;8.966;2022-12-18T00:38:31;55.90;;;20.57;;
23088;SDS011;11713;48.506;8.966;2022-12-18T00:40:57;55.30;;;20.33;;
23088;SDS011;11713;48.506;8.966;2022-12-18T00:43:23;51.67;;;20.97;;
23088;SDS011;11713;48.506;8.966;2022-12-18T00:45:51;56.03;;;21.73;;
23088;SDS011;11713;48.506;8.966;2022-12-18T00:48:17;53.27;;;20.03;;
23088;SDS011;11713;48.506;8.966;2022-12-18T00:50:43;55.60;;;21.63;;
23088;SDS011;11713;48.506;8.966;2022-12-18T00:53:09;53.00;;;21.13;;
23088;SDS011;11713;48.506;8.966;2022-12-18T00:55:36;55.80;;;20.00;;
23088;SDS011;11713;48.506;8.966;2022-12-18T00:58:04;52.47;;;21.20;;
23088;SDS011;11713;48.506;8.966;2022-12-18T01:00:30;46.93;;;20.73;;
23088;SDS011;11713;48.506;8.966;2022-12-18T01:02:56;49.27;;;18.90;;
23088;SDS011;11713;48.506;8.966;2022-12-18T01:05:23;48.07;;;18.00;;
23088;SDS011;11713;48.506;8.966;2022-12-18T01:07:50;47.33;;;18.50;;
23088;SDS011;11713;48.506;8.966;2022-12-18T01:10:16;43.20;;;19.47;;
23088;SDS011;11713;48.506;8.966;2022-12-18T01:12:42;49.33;;;19.83;;
23088;SDS011;11713;48.506;8.966;2022-12-18T01:15:09;41.53;;;17.73;;
23088;SDS011;11713;48.506;8.966;2022-12-18T01:17:37;43.43;;;18.87;;
23088;SDS011;11713;48.506;8.966;2022-12-18T01:20:03;43.57;;;18.10;;
23088;SDS011;11713;48.506;8.966;2022-12-18T01:22:31;48.97;;;19.47;;
23088;SDS011;11713;48.506;8.966;2022-12-18T01:24:57;44.47;;;18.63;;
23088;SDS011;11713;48.506;8.966;2022-12-18T01:27:23;51.57;;;20.30;;
23088;SDS011;11713;48.506;8.966;2022-12-18T01:29:50;51.33;;;20.47;;
23088;SDS011;11713;48.506;8.966;2022-12-18T01:32:18;49.30;;;20.70;;
23088;SDS011;11713;48.506;8.966;2022-12-18T01:34:44;49.83;;;19.60;;
23088;SDS011;11713;48.506;8.966;2022-12-18T01:37:10;45.23;;;19.33;;
23088;SDS011;11713;48.506;8.966;2022-12-18T01:39:36;52.53;;;20.37;;
23088;SDS011;11713;48.506;8.966;2022-12-18T01:42:05;53.70;;;19.90;;
23088;SDS011;11713;48.506;8.966;2022-12-18T01:47:42;59.60;;;21.67;;
23088;SDS011;11713;48.506;8.966;2022-12-18T01:50:20;48.17;;;19.43;;
23088;SDS011;11713;48.506;8.966;2022-12-18T01:52:47;49.63;;;19.97;;
23088;SDS011;11713;48.506;8.966;2022-12-18T01:55:20;46.37;;;19.27;;
23088;SDS011;11713;48.506;8.966;2022-12-18T01:57:49;42.67;;;18.37;;
23088;SDS011;11713;48.506;8.966;2022-12-18T02:00:20;44.80;;;18.63;;
23088;SDS011;11713;48.506;8.966;2022-12-18T02:02:50;54.43;;;19.60;;
23088;SDS011;11713;48.506;8.966;2022-12-18T02:05:19;43.43;;;19.27;;
23088;SDS011;11713;48.506;8.966;2022-12-18T02:08:13;42.83;;;17.53;;
23088;SDS011;11713;48.506;8.966;2022-12-18T02:10:53;47.30;;;18.97;;
23088;SDS011;11713;48.506;8.966;2022-12-18T02:13:28;41.27;;;17.53;;
23088;SDS011;11713;48.506;8.966;2022-12-18T02:24:58;44.30;;;18.07;;
23088;SDS011;11713;48.506;8.966;2022-12-18T02:27:49;46.13;;;17.90;;
23088;SDS011;11713;48.506;8.966;2022-12-18T02:30:19;45.80;;;17.73;;
23088;SDS011;11713;48.506;8.966;2022-12-18T02:32:47;43.40;;;17.60;;
23088;SDS011;11713;48.506;8.966;2022-12-18T02:35:22;45.57;;;17.43;;
23088;SDS011;11713;48.506;8.966;2022-12-18T02:37:53;51.47;;;19.00;;
23088;SDS011;11713;48.506;8.966;2022-12-18T02:40:20;42.17;;;17.77;;
23088;SDS011;11713;48.506;8.966;2022-12-18T02:42:49;39.63;;;17.83;;
23088;SDS011;11713;48.506;8.966;2022-12-18T02:45:17;39.20;;;17.90;;
23088;SDS011;11713;48.506;8.966;2022-12-18T02:47:45;39.87;;;17.87;;
23088;SDS011;11713;48.506;8.966;2022-12-18T02:53:45;40.60;;;17.60;;
23088;SDS011;11713;48.506;8.966;2022-12-18T02:56:43;43.97;;;17.60;;
23088;SDS011;11713;48.506;8.966;2022-12-18T02:59:19;40.77;;;18.60;;
23088;SDS011;11713;48.506;8.966;2022-12-18T03:02:11;42.53;;;16.77;;
23088;SDS011;11713;48.506;8.966;2022-12-18T03:04:57;47.17;;;18.37;;
23088;SDS011;11713;48.506;8.966;2022-12-18T03:07:35;43.77;;;18.07;;
23088;SDS011;11713;48.506;8.966;2022-12-18T03:10:12;46.87;;;18.20;;
23088;SDS011;11713;48.506;8.966;2022-12-18T03:12:44;45.20;;;19.20;;
23088;SDS011;11713;48.506;8.966;2022-12-18T03:15:20;42.27;;;18.93;;
23088;SDS011;11713;48.506;8.966;2022-12-18T03:17:59;55.27;;;19.07;;
23088;SDS011;11713;48.506;8.966;2022-12-18T03:20:30;45.83;;;18.77;;
23088;SDS011;11713;48.506;8.966;2022-12-18T03:23:04;48.10;;;19.60;;
23088;SDS011;11713;48.506;8.966;2022-12-18T03:25:35;52.00;;;20.70;;
23088;SDS011;11713;48.506;8.966;2022-12-18T03:28:04;55.27;;;19.97;;
23088;SDS011;11713;48.506;8.966;2022-12-18T03:30:34;51.93;;;21.30;;
23088;SDS011;11713;48.506;8.966;2022-12-18T03:35:50;59.00;;;21.30;;
23088;SDS011;11713;48.506;8.966;2022-12-18T03:38:17;49.03;;;20.07;;
23088;SDS011;11713;48.506;8.966;2022-12-18T03:40:50;60.23;;;20.80;;
23088;SDS011;11713;48.506;8.966;2022-12-18T03:46:12;48.50;;;20.40;;
23088;SDS011;11713;48.506;8.966;2022-12-18T03:48:56;55.40;;;20.10;;
23088;SDS011;11713;48.506;8.966;2022-12-18T03:54:04;55.30;;;21.63;;
23088;SDS011;11713;48.506;8.966;2022-12-18T03:56:39;57.10;;;20.63;;
23088;SDS011;11713;48.506;8.966;2022-12-18T03:59:10;53.37;;;20.97;;
23088;SDS011;11713;48.506;8.966;2022-12-18T04:01:41;50.30;;;19.50;;
23088;SDS011;11713;48.506;8.966;2022-12-18T04:04:13;63.73;;;21.40;;
23088;SDS011;11713;48.506;8.966;2022-12-18T04:06:41;54.87;;;21.70;;
23088;SDS011;11713;48.506;8.966;2022-12-18T04:09:10;53.17;;;21.80;;
23088;SDS011;11713;48.506;8.966;2022-12-18T04:11:41;62.50;;;21.50;;
23088;SDS011;11713;48.506;8.966;2022-12-18T04:14:10;58.30;;;21.37;;
23088;SDS011;11713;48.506;8.966;2022-12-18T04:16:37;52.33;;;20.87;;
23088;SDS011;11713;48.506;8.966;2022-12-18T04:19:05;53.73;;;21.20;;
23088;SDS011;11713;48.506;8.966;2022-12-18T04:21:37;50.47;;;20.77;;
23088;SDS011;11713;48.506;8.966;2022-12-18T04:24:03;67.83;;;20.60;;
23088;SDS011;11713;48.506;8.966;2022-12-18T04:26:30;61.43;;;22.50;;
23088;SDS011;11713;48.506;8.966;2022-12-18T04:29:09;54.90;;;21.47;;
23088;SDS011;11713;48.506;8.966;2022-12-18T04:31:35;67.27;;;22.50;;
23088;SDS011;11713;48.506;8.966;2022-12-18T04:34:02;65.33;;;23.50;;
23088;SDS011;11713;48.506;8.966;2022-12-18T04:36:31;72.20;;;24.27;;
23088;SDS011;11713;48.506;8.966;2022-12-18T04:38:56;72.00;;;23.40;;
23088;SDS011;11713;48.506;8.966;2022-12-18T04:41:22;74.97;;;24.03;;
23088;SDS011;11713;48.506;8.966;2022-12-18T04:43:51;74.57;;;23.97;;
23088;SDS011;11713;48.506;8.966;2022-12-18T04:46:17;65.70;;;24.27;;
23088;SDS011;11713;48.506;8.966;2022-12-18T04:48:44;74.33;;;23.60;;
23088;SDS011;11713;48.506;8.966;2022-12-18T04:51:11;61.30;;;22.30;;
23088;SDS011;11713;48.506;8.966;2022-12-18T04:53:38;68.83;;;23.67;;
23088;SDS011;11713;48.506;8.966;2022-12-18T04:58:37;54.23;;;21.40;;
23088;SDS011;11713;48.506;8.966;2022-12-18T05:01:17;62.07;;;22.33;;
23088;SDS011;11713;48.506;8.966;2022-12-18T05:03:43;56.77;;;21.63;;
23088;SDS011;11713;48.506;8.966;2022-12-18T05:06:09;63.20;;;22.03;;
23088;SDS011;11713;48.506;8.966;2022-12-18T05:08:36;61.50;;;21.83;;
23088;SDS011;11713;48.506;8.966;2022-12-18T05:11:03;56.43;;;21.50;;
23088;SDS011;11713;48.506;8.966;2022-12-18T05:13:31;69.57;;;21.43;;
23088;SDS011;11713;48.506;8.966;2022-12-18T05:15:58;52.30;;;20.03;;
23088;SDS011;11713;48.506;8.966;2022-12-18T05:18:24;61.77;;;22.23;;
23088;SDS011;11713;48.506;8.966;2022-12-18T05:20:51;53.63;;;21.43;;
23088;SDS011;11713;48.506;8.966;2022-12-18T05:23:18;57.97;;;21.73;;
23088;SDS011;11713;48.506;8.966;2022-12-18T05:25:50;60.30;;;21.03;;
23088;SDS011;11713;48.506;8.966;2022-12-18T05:28:17;55.20;;;21.97;;
23088;SDS011;11713;48.506;8.966;2022-12-18T05:30:47;52.57;;;21.30;;
23088;SDS011;11713;48.506;8.966;2022-12-18T05:33:15;63.20;;;22.67;;
23088;SDS011;11713;48.506;8.966;2022-12-18T05:35:42;61.73;;;22.40;;
23088;SDS011;11713;48.506;8.966;2022-12-18T05:38:08;67.57;;;23.67;;
23088;SDS011;11713;48.506;8.966;2022-12-18T05:40:34;70.20;;;21.87;;
23088;SDS011;11713;48.506;8.966;2022-12-18T05:42:59;57.90;;;23.20;;
23088;SDS011;11713;48.506;8.966;2022-12-18T05:45:25;54.93;;;22.37;;
23088;SDS011;11713;48.506;8.966;2022-12-18T05:47:51;56.33;;;20.60;;
23088;SDS011;11713;48.506;8.966;2022-12-18T05:50:17;45.87;;;20.13;;
23088;SDS011;11713;48.506;8.966;2022-12-18T05:52:43;54.50;;;21.77;;
23088;SDS011;11713;48.506;8.966;2022-12-18T05:55:09;60.50;;;20.13;;
23088;SDS011;11713;48.506;8.966;2022-12-18T05:57:35;60.87;;;22.47;;
23088;SDS011;11713;48.506;8.966;2022-12-18T06:00:01;53.40;;;21.77;;
23088;SDS011;11713;48.506;8.966;2022-12-18T06:02:37;59.10;;;21.97;;
23088;SDS011;11713;48.506;8.966;2022-12-18T06:05:03;51.60;;;20.60;;
23088;SDS011;11713;48.506;8.966;2022-12-18T06:07:29;56.77;;;20.50;;
23088;SDS011;11713;48.506;8.966;2022-12-18T06:09:55;53.67;;;19.67;;
23088;SDS011;11713;48.506;8.966;2022-12-18T06:12:21;54.33;;;21.30;;
23088;SDS011;11713;48.506;8.966;2022-12-18T06:14:47;52.80;;;20.23;;
23088;SDS011;11713;48.506;8.966;2022-12-18T06:17:13;62.20;;;19.87;;
23088;SDS011;11713;48.506;8.966;2022-12-18T06:19:39;46.10;;;18.47;;
23088;SDS011;11713;48.506;8.966;2022-12-18T06:22:05;62.03;;;20.87;;
23088;SDS011;11713;48.506;8.966;2022-12-18T06:24:30;57.30;;;19.37;;
23088;SDS011;11713;48.506;8.966;2022-12-18T06:26:56;46.40;;;18.63;;
23088;SDS011;11713;48.506;8.966;2022-12-18T06:29:22;63.43;;;23.40;;
23088;SDS011;11713;48.506;8.966;2022-12-18T06:31:48;60.57;;;22.83;;
23088;SDS011;11713;48.506;8.966;2022-12-18T06:34:14;72.93;;;28.00;;
23088;SDS011;11713;48.506;8.966;2022-12-18T06:36:39;65.93;;;24.70;;
23088;SDS011;11713;48.506;8.966;2022-12-18T06:39:05;67.33;;;22.13;;
23088;SDS011;11713;48.506;8.966;2022-12-18T06:41:31;57.73;;;21.43;;
23088;SDS011;11713;48.506;8.966;2022-12-18T06:43:57;55.57;;;22.13;;
23088;SDS011;11713;48.506;8.966;2022-12-18T06:46:23;52.97;;;20.70;;
23088;SDS011;11713;48.506;8.966;2022-12-18T06:48:49;46.83;;;19.67;;
23088;SDS011;11713;48.506;8.966;2022-12-18T06:51:18;46.50;;;20.43;;
23088;SDS011;11713;48.506;8.966;2022-12-18T06:53:46;66.00;;;26.27;;
23088;SDS011;11713;48.506;8.966;2022-12-18T06:56:12;52.00;;;20.43;;
23088;SDS011;11713;48.506;8.966;2022-12-18T06:58:38;49.70;;;18.93;;
23088;SDS011;11713;48.506;8.966;2022-12-18T07:06:42;49.50;;;18.93;;
23088;SDS011;11713;48.506;8.966;2022-12-18T07:09:22;42.90;;;18.67;;
23088;SDS011;11713;48.506;8.966;2022-12-18T07:11:48;45.00;;;18.93;;
23088;SDS011;11713;48.506;8.966;2022-12-18T07:14:14;48.73;;;19.57;;
23088;SDS011;11713;48.506;8.966;2022-12-18T07:16:40;49.27;;;19.33;;
23088;SDS011;11713;48.506;8.966;2022-12-18T07:19:10;48.23;;;18.70;;
23088;SDS011;11713;48.506;8.966;2022-12-18T07:21:45;46.63;;;18.50;;
23088;SDS011;11713;48.506;8.966;2022-12-18T07:24:11;55.00;;;19.47;;
23088;SDS011;11713;48.506;8.966;2022-12-18T07:26:37;51.93;;;20.80;;
23088;SDS011;11713;48.506;8.966;2022-12-18T07:29:03;48.90;;;19.53;;
23088;SDS011;11713;48.506;8.966;2022-12-18T07:31:29;48.40;;;20.07;;
23088;SDS011;11713;48.506;8.966;2022-12-18T07:33:55;56.90;;;19.97;;
23088;SDS011;11713;48.506;8.966;2022-12-18T07:36:21;54.13;;;20.97;;
23088;SDS011;11713;48.506;8.966;2022-12-18T07:38:47;65.63;;;23.90;;
23088;SDS011;11713;48.506;8.966;2022-12-18T07:41:14;60.67;;;22.37;;
23088;SDS011;11713;48.506;8.966;2022-12-18T07:43:40;62.57;;;22.90;;
23088;SDS011;11713;48.506;8.966;2022-12-18T07:46:07;69.50;;;23.77;;
23088;SDS011;11713;48.506;8.966;2022-12-18T07:48:34;71.47;;;25.07;;
23088;SDS011;11713;48.506;8.966;2022-12-18T07:51:00;66.67;;;24.00;;
23088;SDS011;11713;48.506;8.966;2022-12-18T07:53:32;63.53;;;23.70;;
23088;SDS011;11713;48.506;8.966;2022-12-18T07:56:00;60.30;;;22.73;;
23088;SDS011;11713;48.506;8.966;2022-12-18T07:58:31;69.83;;;24.47;;
23088;SDS011;11713;48.506;8.966;2022-12-18T08:04:06;70.67;;;22.57;;
23088;SDS011;11713;48.506;8.966;2022-12-18T08:06:32;61.87;;;23.17;;
23088;SDS011;11713;48.506;8.966;2022-12-18T08:08:58;66.47;;;21.90;;
23088;SDS011;11713;48.506;8.966;2022-12-18T08:11:25;73.30;;;23.73;;
23088;SDS011;11713;48.506;8.966;2022-12-18T08:13:53;64.77;;;22.50;;
23088;SDS011;11713;48.506;8.966;2022-12-18T08:16:20;57.00;;;20.67;;
23088;SDS011;11713;48.506;8.966;2022-12-18T08:18:48;54.07;;;20.83;;
23088;SDS011;11713;48.506;8.966;2022-12-18T08:21:22;61.90;;;20.40;;
23088;SDS011;11713;48.506;8.966;2022-12-18T08:23:50;73.03;;;24.50;;
23088;SDS011;11713;48.506;8.966;2022-12-18T08:26:17;62.37;;;23.77;;
23088;SDS011;11713;48.506;8.966;2022-12-18T08:32:10;60.97;;;24.80;;
23088;SDS011;11713;48.506;8.966;2022-12-18T08:34:37;55.43;;;23.13;;
23088;SDS011;11713;48.506;8.966;2022-12-18T08:39:43;56.07;;;21.93;;
23088;SDS011;11713;48.506;8.966;2022-12-18T08:42:09;59.23;;;23.30;;
23088;SDS011;11713;48.506;8.966;2022-12-18T08:44:58;68.77;;;22.97;;
23088;SDS011;11713;48.506;8.966;2022-12-18T08:47:24;58.53;;;23.07;;
23088;SDS011;11713;48.506;8.966;2022-12-18T08:49:51;51.53;;;20.93;;
23088;SDS011;11713;48.506;8.966;2022-12-18T08:52:17;50.47;;;21.80;;
23088;SDS011;11713;48.506;8.966;2022-12-18T08:54:42;44.53;;;20.30;;
23088;SDS011;11713;48.506;8.966;2022-12-18T08:57:08;50.83;;;23.77;;
23088;SDS011;11713;48.506;8.966;2022-12-18T08:59:34;55.23;;;24.87;;
23088;SDS011;11713;48.506;8.966;2022-12-18T09:02:00;55.93;;;21.93;;
23088;SDS011;11713;48.506;8.966;2022-12-18T09:04:26;50.00;;;22.20;;
23088;SDS011;11713;48.506;8.966;2022-12-18T09:06:52;49.07;;;21.57;;
23088;SDS011;11713;48.506;8.966;2022-12-18T09:09:21;46.13;;;22.23;;
23088;SDS011;11713;48.506;8.966;2022-12-18T09:11:47;45.13;;;21.17;;
23088;SDS011;11713;48.506;8.966;2022-12-18T09:14:12;48.67;;;22.90;;
23088;SDS011;11713;48.506;8.966;2022-12-18T09:16:38;55.07;;;24.13;;
23088;SDS011;11713;48.506;8.966;2022-12-18T09:19:04;57.57;;;27.47;;
23088;SDS011;11713;48.506;8.966;2022-12-18T09:21:44;52.13;;;24.73;;
23088;SDS011;11713;48.506;8.966;2022-12-18T09:24:11;46.27;;;20.37;;
23088;SDS011;11713;48.506;8.966;2022-12-18T09:26:38;54.93;;;22.17;;
23088;SDS011;11713;48.506;8.966;2022-12-18T09:29:04;51.10;;;20.60;;
23088;SDS011;11713;48.506;8.966;2022-12-18T09:31:32;46.97;;;20.30;;
23088;SDS011;11713;48.506;8.966;2022-12-18T09:33:58;51.17;;;21.70;;
23088;SDS011;11713;48.506;8.966;2022-12-18T09:36:24;57.70;;;23.20;;
23088;SDS011;11713;48.506;8.966;2022-12-18T09:38:50;53.10;;;23.20;;
23088;SDS011;11713;48.506;8.966;2022-12-18T09:41:38;56.10;;;24.23;;
23088;SDS011;11713;48.506;8.966;2022-12-18T09:44:17;52.90;;;23.30;;
23088;SDS011;11713;48.506;8.966;2022-12-18T09:46:52;71.33;;;29.77;;
23088;SDS011;11713;48.506;8.966;2022-12-18T09:49:22;59.43;;;25.73;;
23088;SDS011;11713;48.506;8.966;2022-12-18T09:52:00;49.03;;;21.33;;
23088;SDS011;11713;48.506;8.966;2022-12-18T09:54:43;65.20;;;26.07;;
23088;SDS011;11713;48.506;8.966;2022-12-18T09:57:51;64.67;;;30.43;;
23088;SDS011;11713;48.506;8.966;2022-12-18T10:00:22;55.47;;;24.87;;
23088;SDS011;11713;48.506;8.966;2022-12-18T10:02:51;52.17;;;24.87;;
23088;SDS011;11713;48.506;8.966;2022-12-18T10:08:04;56.67;;;25.83;;
23088;SDS011;11713;48.506;8.966;2022-12-18T10:10:48;59.23;;;26.43;;
23088;SDS011;11713;48.506;8.966;2022-12-18T10:13:42;58.47;;;26.30;;
23088;SDS011;11713;48.506;8.966;2022-12-18T10:16:19;54.63;;;24.37;;
23088;SDS011;11713;48.506;8.966;2022-12-18T10:21:24;58.40;;;26.37;;
23088;SDS011;11713;48.506;8.966;2022-12-18T10:27:22;50.70;;;25.37;;
23088;SDS011;11713;48.506;8.966;2022-12-18T10:29:51;49.13;;;23.93;;
23088;SDS011;11713;48.506;8.966;2022-12-18T10:32:19;49.87;;;24.23;;
23088;SDS011;11713;48.506;8.966;2022-12-18T10:34:47;57.87;;;25.77;;
23088;SDS011;11713;48.506;8.966;2022-12-18T10:37:19;53.40;;;26.23;;
23088;SDS011;11713;48.506;8.966;2022-12-18T10:39:47;52.13;;;25.87;;
23088;SDS011;11713;48.506;8.966;2022-12-18T10:42:38;54.40;;;25.63;;
23088;SDS011;11713;48.506;8.966;2022-12-18T10:45:10;54.90;;;27.17;;
23088;SDS011;11713;48.506;8.966;2022-12-18T10:47:49;64.00;;;28.43;;
23088;SDS011;11713;48.506;8.966;2022-12-18T10:52:56;55.77;;;26.50;;
23088;SDS011;11713;48.506;8.966;2022-12-18T10:55:35;56.67;;;26.43;;
23088;SDS011;11713;48.506;8.966;2022-12-18T10:58:13;58.80;;;28.30;;
23088;SDS011;11713;48.506;8.966;2022-12-18T11:00:42;59.63;;;30.67;;
23088;SDS011;11713;48.506;8.966;2022-12-18T11:03:42;67.40;;;31.97;;
23088;SDS011;11713;48.506;8.966;2022-12-18T11:06:07;67.80;;;33.97;;
23088;SDS011;11713;48.506;8.966;2022-12-18T11:08:33;64.30;;;30.13;;
23088;SDS011;11713;48.506;8.966;2022-12-18T11:10:59;60.60;;;30.37;;
23088;SDS011;11713;48.506;8.966;2022-12-18T11:13:26;73.17;;;33.47;;
23088;SDS011;11713;48.506;8.966;2022-12-18T11:15:54;69.37;;;32.80;;
23088;SDS011;11713;48.506;8.966;2022-12-18T11:18:25;62.43;;;29.47;;
23088;SDS011;11713;48.506;8.966;2022-12-18T11:20:59;65.80;;;29.47;;
23088;SDS011;11713;48.506;8.966;2022-12-18T11:23:34;72.07;;;31.93;;
23088;SDS011;11713;48.506;8.966;2022-12-18T11:26:02;69.10;;;33.13;;
23088;SDS011;11713;48.506;8.966;2022-12-18T11:28:37;59.90;;;29.03;;
23088;SDS011;11713;48.506;8.966;2022-12-18T11:36:54;45.70;;;22.17;;
23088;SDS011;11713;48.506;8.966;2022-12-18T11:39:24;50.00;;;24.80;;
23088;SDS011;11713;48.506;8.966;2022-12-18T11:44:49;62.37;;;28.53;;
23088;SDS011;11713;48.506;8.966;2022-12-18T11:52:43;65.20;;;30.53;;
23088;SDS011;11713;48.506;8.966;2022-12-18T11:55:21;64.37;;;32.23;;
23088;SDS011;11713;48.506;8.966;2022-12-18T11:57:56;64.53;;;33.00;;
23088;SDS011;11713;48.506;8.966;2022-12-18T12:00:27;60.03;;;31.70;;
23088;SDS011;11713;48.506;8.966;2022-12-18T12:11:25;69.77;;;34.07;;
23088;SDS011;11713;48.506;8.966;2022-12-18T12:24:59;67.90;;;32.73;;
23088;SDS011;11713;48.506;8.966;2022-12-18T12:38:51;66.90;;;36.30;;
23088;SDS011;11713;48.506;8.966;2022-12-18T12:41:25;62.43;;;32.17;;
23088;SDS011;11713;48.506;8.966;2022-12-18T12:44:15;60.23;;;30.40;;
23088;SDS011;11713;48.506;8.966;2022-12-18T12:46:56;59.37;;;29.03;;
23088;SDS011;11713;48.506;8.966;2022-12-18T12:49:29;56.77;;;28.30;;
23088;SDS011;11713;48.506;8.966;2022-12-18T12:52:12;64.23;;;32.10;;
23088;SDS011;11713;48.506;8.966;2022-12-18T12:54:43;57.77;;;29.03;;
23088;SDS011;11713;48.506;8.966;2022-12-18T12:57:24;60.63;;;29.93;;
23088;SDS011;11713;48.506;8.966;2022-12-18T13:00:09;53.90;;;28.33;;
23088;SDS011;11713;48.506;8.966;2022-12-18T13:05:39;80.23;;;40.07;;
23088;SDS011;11713;48.506;8.966;2022-12-18T13:08:21;62.07;;;33.33;;
23088;SDS011;11713;48.506;8.966;2022-12-18T13:10:55;56.63;;;30.70;;
23088;SDS011;11713;48.506;8.966;2022-12-18T13:14:01;56.73;;;28.97;;
23088;SDS011;11713;48.506;8.966;2022-12-18T13:16:33;86.20;;;37.00;;
23088;SDS011;11713;48.506;8.966;2022-12-18T13:19:04;85.33;;;38.23;;
23088;SDS011;11713;48.506;8.966;2022-12-18T13:21:52;81.43;;;37.10;;
23088;SDS011;11713;48.506;8.966;2022-12-18T13:24:27;98.17;;;43.00;;
23088;SDS011;11713;48.506;8.966;2022-12-18T13:26:56;72.97;;;38.03;;
23088;SDS011;11713;48.506;8.966;2022-12-18T13:29:39;70.60;;;37.73;;
23088;SDS011;11713;48.506;8.966;2022-12-18T13:32:28;76.23;;;36.47;;
23088;SDS011;11713;48.506;8.966;2022-12-18T13:35:36;81.43;;;38.87;;
23088;SDS011;11713;48.506;8.966;2022-12-18T13:37:52;71.97;;;36.13;;
23088;SDS011;11713;48.506;8.966;2022-12-18T13:43:15;68.10;;;32.20;;
23088;SDS011;11713;48.506;8.966;2022-12-18T13:48:49;60.93;;;31.77;;
23088;SDS011;11713;48.506;8.966;2022-12-18T13:51:16;63.97;;;34.30;;
23088;SDS011;11713;48.506;8.966;2022-12-18T13:53:46;67.53;;;35.57;;
23088;SDS011;11713;48.506;8.966;2022-12-18T13:56:16;74.30;;;39.47;;
23088;SDS011;11713;48.506;8.966;2022-12-18T13:58:46;90.13;;;45.13;;
23088;SDS011;11713;48.506;8.966;2022-12-18T14:01:47;76.20;;;41.50;;
23088;SDS011;11713;48.506;8.966;2022-12-18T14:04:27;74.40;;;38.57;;
23088;SDS011;11713;48.506;8.966;2022-12-18T14:07:04;74.27;;;38.73;;
23088;SDS011;11713;48.506;8.966;2022-12-18T14:09:36;69.67;;;36.90;;
23088;SDS011;11713;48.506;8.966;2022-12-18T14:12:13;61.77;;;33.53;;
23088;SDS011;11713;48.506;8.966;2022-12-18T14:15:00;66.07;;;34.60;;
23088;SDS011;11713;48.506;8.966;2022-12-18T14:17:27;65.60;;;33.53;;
23088;SDS011;11713;48.506;8.966;2022-12-18T14:19:53;75.13;;;38.90;;
23088;SDS011;11713;48.506;8.966;2022-12-18T14:22:24;65.47;;;36.43;;
23088;SDS011;11713;48.506;8.966;2022-12-18T14:27:43;66.33;;;33.60;;
23088;SDS011;11713;48.506;8.966;2022-12-18T14:30:25;70.53;;;34.97;;
23088;SDS011;11713;48.506;8.966;2022-12-18T14:33:09;78.63;;;36.37;;
23088;SDS011;11713;48.506;8.966;2022-12-18T14:36:13;67.00;;;33.47;;
23088;SDS011;11713;48.506;8.966;2022-12-18T14:38:40;62.87;;;32.30;;
23088;SDS011;11713;48.506;8.966;2022-12-18T14:41:09;65.97;;;33.43;;
23088;SDS011;11713;48.506;8.966;2022-12-18T14:43:36;61.80;;;30.47;;
23088;SDS011;11713;48.506;8.966;2022-12-18T14:46:06;65.60;;;32.03;;
23088;SDS011;11713;48.506;8.966;2022-12-18T14:48:55;73.20;;;33.33;;
23088;SDS011;11713;48.506;8.966;2022-12-18T14:51:23;67.37;;;34.20;;
23088;SDS011;11713;48.506;8.966;2022-12-18T14:53:58;75.97;;;36.80;;
23088;SDS011;11713;48.506;8.966;2022-12-18T14:56:35;66.40;;;31.77;;
23088;SDS011;11713;48.506;8.966;2022-12-18T14:59:15;67.23;;;32.97;;
23088;SDS011;11713;48.506;8.966;2022-12-18T15:01:53;60.13;;;31.43;;
23088;SDS011;11713;48.506;8.966;2022-12-18T15:04:38;82.87;;;39.00;;
23088;SDS011;11713;48.506;8.966;2022-12-18T15:09:36;83.90;;;40.17;;
23088;SDS011;11713;48.506;8.966;2022-12-18T15:12:04;79.90;;;37.53;;
23088;SDS011;11713;48.506;8.966;2022-12-18T15:17:13;77.10;;;36.97;;
23088;SDS011;11713;48.506;8.966;2022-12-18T15:19:44;69.10;;;35.33;;
23088;SDS011;11713;48.506;8.966;2022-12-18T15:22:17;78.27;;;37.23;;
23088;SDS011;11713;48.506;8.966;2022-12-18T15:24:46;77.40;;;37.87;;
23088;SDS011;11713;48.506;8.966;2022-12-18T15:27:26;92.73;;;44.43;;
23088;SDS011;11713;48.506;8.966;2022-12-18T15:29:59;91.50;;;45.13;;
23088;SDS011;11713;48.506;8.966;2022-12-18T15:32:26;84.40;;;42.83;;
23088;SDS011;11713;48.506;8.966;2022-12-18T15:35:02;89.40;;;46.97;;
23088;SDS011;11713;48.506;8.966;2022-12-18T15:37:48;86.37;;;44.03;;
23088;SDS011;11713;48.506;8.966;2022-12-18T15:40:19;83.90;;;43.87;;
23088;SDS011;11713;48.506;8.966;2022-12-18T15:42:47;88.73;;;44.53;;
23088;SDS011;11713;48.506;8.966;2022-12-18T15:45:33;77.03;;;40.23;;
23088;SDS011;11713;48.506;8.966;2022-12-18T15:47:59;85.33;;;41.80;;
23088;SDS011;11713;48.506;8.966;2022-12-18T15:50:25;82.13;;;39.93;;
23088;SDS011;11713;48.506;8.966;2022-12-18T15:52:51;81.50;;;39.47;;
23088;SDS011;11713;48.506;8.966;2022-12-18T15:55:20;78.70;;;38.67;;
23088;SDS011;11713;48.506;8.966;2022-12-18T15:58:06;82.60;;;41.03;;
23088;SDS011;11713;48.506;8.966;2022-12-18T16:00:34;77.80;;;38.03;;
23088;SDS011;11713;48.506;8.966;2022-12-18T16:03:01;91.37;;;43.17;;
23088;SDS011;11713;48.506;8.966;2022-12-18T16:05:29;79.50;;;40.33;;
23088;SDS011;11713;48.506;8.966;2022-12-18T16:07:56;94.17;;;45.37;;
23088;SDS011;11713;48.506;8.966;2022-12-18T16:10:24;95.30;;;41.77;;
23088;SDS011;11713;48.506;8.966;2022-12-18T16:12:51;96.40;;;45.70;;
23088;SDS011;11713;48.506;8.966;2022-12-18T16:15:17;104.00;;;48.07;;
23088;SDS011;11713;48.506;8.966;2022-12-18T16:17:43;94.70;;;44.50;;
23088;SDS011;11713;48.506;8.966;2022-12-18T16:20:13;83.60;;;40.87;;
23088;SDS011;11713;48.506;8.966;2022-12-18T16:22:41;83.20;;;38.93;;
23088;SDS011;11713;48.506;8.966;2022-12-18T16:27:47;85.43;;;40.47;;
23088;SDS011;11713;48.506;8.966;2022-12-18T16:30:16;90.33;;;43.23;;
23088;SDS011;11713;48.506;8.966;2022-12-18T16:32:46;82.50;;;40.27;;
23088;SDS011;11713;48.506;8.966;2022-12-18T16:35:13;84.43;;;40.47;;
23088;SDS011;11713;48.506;8.966;2022-12-18T16:37:40;90.57;;;39.97;;
23088;SDS011;11713;48.506;8.966;2022-12-18T16:40:07;87.57;;;41.30;;
23088;SDS011;11713;48.506;8.966;2022-12-18T16:42:35;88.77;;;42.63;;